»·PEaware :: AWE232 KCPR-KDEN

AWE232 :: KCPR-KDEN

FLIGHT INFORMATION

Flight Status: Arrived
Operator:
US Airways
More flights by this operator :: More flights under this callsign
Pilot: Anonymous 36068 (36068)
Aircraft: BEECH AIRCRAFT PREMIER
(PRM1)
More flights by this aircraft type
Origin: KCPR Natrona Co Intl
United States
Destination: KDEN Denver Intl
United States
More flights between these airports :: More routes between these airports
Route: ALCOS6 MBW HIPEE FLATI2
File this flight plan on PilotEdge
Remarks:
Altitude:
(Current/Filed)
27,000ft
Speed:
(Current/Filed)
400kts
Departed: 16-Sep-21 07:47 AM
Arrived: 16-Sep-21 08:34 AM
Distance/Time
Traveled:
201nm/0:47
Distance/Time
To Go:
Arrived

Flight Plot

Page will automatically refresh every two minutes.

Flight plan parsing failed; only flown route is shown


Map Options




Map Legend


Flown Route
Filed Route
Departure Airport
Arrival Airport
Navaid (VOR, NDB)
Fix

Horizontal Profiles

Position Reports

Time Latitude Longitude Heading Altitude Ground
Speed
16-Sep-21 07:19 42.905864 -106.455294 313 5333ft 0kts
16-Sep-21 07:20 42.905864 -106.455294 313 5333ft 0kts
16-Sep-21 07:21 42.905864 -106.455294 313 5333ft 0kts
16-Sep-21 07:22 42.905864 -106.455294 313 5333ft 0kts
16-Sep-21 07:23 42.905864 -106.455294 313 5333ft 0kts
16-Sep-21 07:24 42.905864 -106.455294 313 5333ft 0kts
16-Sep-21 07:25 42.905864 -106.455294 313 5333ft 0kts
16-Sep-21 07:26 42.905864 -106.455294 313 5333ft 0kts
16-Sep-21 07:27 42.905864 -106.455294 313 5333ft 0kts
16-Sep-21 07:28 42.905864 -106.455294 313 5333ft 0kts
16-Sep-21 07:29 42.905864 -106.455294 313 5333ft 0kts
16-Sep-21 07:30 42.905864 -106.455294 313 5333ft 0kts
16-Sep-21 07:31 42.905864 -106.455294 313 5333ft 0kts
16-Sep-21 07:32 42.905864 -106.455294 313 5333ft 0kts
16-Sep-21 07:33 42.905864 -106.455294 313 5333ft 0kts
16-Sep-21 07:34 42.905864 -106.455294 313 5333ft 0kts
16-Sep-21 07:35 42.905864 -106.455294 313 5333ft 0kts
16-Sep-21 07:36 42.905864 -106.455294 313 5333ft 0kts
16-Sep-21 07:37 42.905864 -106.455294 313 5333ft 0kts
16-Sep-21 07:38 42.905864 -106.455294 313 5333ft 0kts
16-Sep-21 07:39 42.905893 -106.455328 325 5333ft 3kts
16-Sep-21 07:40 42.907968 -106.453199 43 5335ft 10kts
16-Sep-21 07:41 42.910556 -106.449836 43 5328ft 12kts
16-Sep-21 07:42 42.912598 -106.447793 315 5320ft 2kts
16-Sep-21 07:43 42.912601 -106.447797 315 5320ft 0kts
16-Sep-21 07:44 42.912601 -106.447797 315 5320ft 0kts
16-Sep-21 07:45 42.912793 -106.448060 314 5321ft 5kts
16-Sep-21 07:46 42.904674 -106.460251 223 5331ft 143kts
16-Sep-21 07:47 42.869347 -106.504518 214 7712ft 196kts
16-Sep-21 07:48 42.819135 -106.548270 216 10279ft 235kts
16-Sep-21 07:49 42.755752 -106.555006 156 12842ft 260kts
16-Sep-21 07:50 42.688266 -106.513522 156 15255ft 277kts
16-Sep-21 07:51 42.615812 -106.469146 156 17474ft 292kts
16-Sep-21 07:52 42.541290 -106.423624 156 19637ft 298kts
16-Sep-21 07:53 42.465193 -106.377262 156 21633ft 303kts
16-Sep-21 07:54 42.388418 -106.330613 156 23626ft 303kts
16-Sep-21 07:55 42.311488 -106.283996 156 25380ft 305kts
16-Sep-21 07:56 42.234186 -106.237279 156 26932ft 310kts
16-Sep-21 07:57 42.149445 -106.186211 156 26988ft 358kts
16-Sep-21 07:58 42.054053 -106.128904 156 26986ft 393kts
16-Sep-21 07:59 41.951118 -106.067277 156 26982ft 413kts
16-Sep-21 08:00 41.844349 -106.012069 174 26975ft 414kts
16-Sep-21 08:01 41.731038 -106.033038 190 26981ft 414kts
16-Sep-21 08:02 41.617897 -106.061411 190 26981ft 415kts
16-Sep-21 08:03 41.504568 -106.089702 190 26981ft 415kts
16-Sep-21 08:04 41.391422 -106.117846 190 26981ft 415kts
16-Sep-21 08:05 41.278142 -106.145923 190 26981ft 415kts
16-Sep-21 08:06 41.164702 -106.173942 190 26981ft 416kts
16-Sep-21 08:07 41.051067 -106.201910 190 26981ft 416kts
16-Sep-21 08:08 40.937682 -106.229718 190 26981ft 416kts
16-Sep-21 08:09 40.832050 -106.194359 135 26970ft 415kts
16-Sep-21 08:11 40.777427 -106.060400 115 26255ft 420kts
16-Sep-21 08:12 40.727940 -105.921515 115 24257ft 417kts
16-Sep-21 08:13 40.678986 -105.785090 115 22226ft 407kts
16-Sep-21 08:14 40.631090 -105.652265 115 19919ft 396kts
16-Sep-21 08:15 40.585181 -105.525521 115 18981ft 371kts
16-Sep-21 08:16 40.541063 -105.404256 115 18607ft 376kts
16-Sep-21 08:17 40.497190 -105.284152 115 16120ft 349kts
16-Sep-21 08:18 40.460213 -105.181061 109 15876ft 282kts
16-Sep-21 08:19 40.435273 -105.079750 107 14001ft 292kts
16-Sep-21 08:20 40.412616 -104.984953 107 13932ft 260kts
16-Sep-21 08:21 40.391528 -104.897107 107 13913ft 248kts
16-Sep-21 08:22 40.370305 -104.808099 107 12939ft 252kts
16-Sep-21 08:23 40.349183 -104.721706 108 12935ft 247kts
16-Sep-21 08:24 40.304475 -104.659612 168 12111ft 243kts
16-Sep-21 08:25 40.240528 -104.655571 180 11934ft 222kts
16-Sep-21 08:26 40.177234 -104.656344 180 11396ft 241kts
16-Sep-21 08:27 40.110006 -104.657157 180 10439ft 239kts
16-Sep-21 08:28 40.048799 -104.657894 180 9218ft 198kts
16-Sep-21 08:29 40.001363 -104.658478 180 8241ft 160kts
16-Sep-21 08:30 39.956765 -104.659026 180 7363ft 158kts
16-Sep-21 08:31 39.914741 -104.659496 180 6517ft 146kts
16-Sep-21 08:31 39.881318 -104.659897 180 5869ft 141kts
16-Sep-21 08:33 39.844529 -104.660371 181 5441ft 43kts
16-Sep-21 08:34 39.840277 -104.662427 254 5441ft 11kts
16-Sep-21 08:35 39.838521 -104.664573 220 5441ft 13kts
16-Sep-21 08:36 39.838102 -104.665544 356 5441ft 0kts
16-Sep-21 08:36 39.838120 -104.665543 0 5441ft 0kts
16-Sep-21 08:37 39.838120 -104.665543 0 5441ft 0kts

Navigation Log

Ident Type
Flight plan parsing failed, navigation log unavailable